Time;durP1;ratioP1;P1;durP2;ratioP2;P2;SDS_P1;SDS_P2;PMS_P1;PMS_P2;Temp;Humidity;BMP_temperature;BMP_pressure;BME280_temperature;BME280_humidity;BME280_pressure;Samples;Min_cycle;Max_cycle;Signal;HPM_P1;HPM_P2
2022/11/24 00:00:51;;;;;;;4.50;1.20;;;7.80;84.50;;;;;;4954807;29;20197;-66
2022/11/24 00:03:19;;;;;;;5.95;1.40;;;7.70;84.70;;;;;;4954612;29;20190;-66
2022/11/24 00:05:46;;;;;;;14.52;1.77;;;7.70;84.50;;;;;;4954653;29;20364;-67
2022/11/24 00:08:14;;;;;;;5.40;1.70;;;7.70;84.40;;;;;;4954807;29;20590;-66
2022/11/24 00:10:42;;;;;;;4.07;1.48;;;7.70;84.50;;;;;;4954453;29;20201;-67
2022/11/24 00:13:09;;;;;;;5.97;1.20;;;7.60;85.00;;;;;;4954853;29;20220;-67
2022/11/24 00:15:36;;;;;;;4.38;1.25;;;7.70;84.90;;;;;;4954273;29;20189;-67
2022/11/24 00:18:03;;;;;;;2.88;1.23;;;7.70;84.90;;;;;;4954541;29;20356;-67
2022/11/24 00:20:31;;;;;;;3.40;1.35;;;7.60;84.40;;;;;;4954270;29;20637;-67
2022/11/24 00:22:58;;;;;;;4.10;1.33;;;7.60;84.80;;;;;;4954665;29;20189;-66
2022/11/24 00:25:26;;;;;;;7.28;2.35;;;7.60;84.90;;;;;;4954300;29;20193;-66
2022/11/24 00:27:54;;;;;;;4.40;1.60;;;7.50;85.00;;;;;;4954625;29;20583;-66
2022/11/24 00:30:21;;;;;;;4.50;1.20;;;7.50;85.30;;;;;;4954489;29;20217;-66
2022/11/24 00:32:48;;;;;;;7.07;2.00;;;7.50;85.80;;;;;;4954110;29;20548;-67
2022/11/24 00:35:15;;;;;;;3.30;1.77;;;7.50;85.70;;;;;;4954423;29;20785;-66
2022/11/24 00:37:42;;;;;;;4.95;1.25;;;7.50;86.10;;;;;;4953859;29;20194;-66
2022/11/24 00:40:10;;;;;;;3.15;1.30;;;7.40;86.40;;;;;;4954134;29;20197;-66
2022/11/24 00:42:39;;;;;;;2.97;1.30;;;7.50;86.50;;;;;;4954223;29;20227;-66
2022/11/24 00:45:07;;;;;;;3.28;1.23;;;7.50;86.60;;;;;;4953881;29;20192;-66
2022/11/24 00:47:34;;;;;;;7.00;1.45;;;7.50;86.60;;;;;;4954160;29;20194;-66
2022/11/24 00:50:01;;;;;;;8.07;1.65;;;7.50;87.60;;;;;;4953767;29;20193;-67
2022/11/24 00:52:29;;;;;;;3.75;1.20;;;7.50;87.00;;;;;;4953690;28;20198;-66
2022/11/24 00:54:56;;;;;;;2.75;1.40;;;7.40;86.90;;;;;;4953821;29;20190;-66
2022/11/24 00:57:23;;;;;;;5.97;1.27;;;7.50;87.10;;;;;;4954004;29;20214;-66
2022/11/24 00:59:52;;;;;;;4.20;1.00;;;7.50;87.10;;;;;;4953690;29;20625;-66
2022/11/24 01:02:19;;;;;;;3.83;1.38;;;7.50;86.90;;;;;;4954121;29;20562;-66
2022/11/24 01:04:46;;;;;;;5.60;1.42;;;7.40;87.20;;;;;;4954013;29;20366;-66
2022/11/24 01:07:14;;;;;;;2.50;1.15;;;7.50;87.60;;;;;;4953643;29;20348;-66
2022/11/24 01:09:42;;;;;;;2.55;0.80;;;7.40;88.60;;;;;;4953676;29;20202;-67
2022/11/24 01:12:09;;;;;;;5.60;1.00;;;7.40;87.80;;;;;;4953804;29;20233;-66
2022/11/24 01:14:37;;;;;;;2.20;1.10;;;7.40;87.70;;;;;;4953469;29;20637;-66
2022/11/24 01:17:07;;;;;;;3.22;0.93;;;7.40;87.90;;;;;;4954122;29;20201;-66
2022/11/24 01:19:35;;;;;;;2.97;1.00;;;7.50;88.60;;;;;;4953411;29;20248;-66
2022/11/24 01:22:02;;;;;;;3.25;1.13;;;7.50;88.70;;;;;;4953869;29;20276;-66
2022/11/24 01:24:29;;;;;;;3.97;1.40;;;7.60;88.60;;;;;;4953591;29;20193;-67
2022/11/24 01:26:56;;;;;;;2.45;1.00;;;7.70;88.60;;;;;;4937955;29;20269;-66
2022/11/24 01:29:24;;;;;;;6.13;1.33;;;7.70;88.30;;;;;;4953607;29;20190;-66
2022/11/24 01:31:52;;;;;;;3.97;1.10;;;7.80;88.10;;;;;;4953050;29;20185;-66
2022/11/24 01:34:20;;;;;;;2.85;1.15;;;7.80;88.20;;;;;;4954074;29;20501;-67
2022/11/24 01:36:48;;;;;;;2.95;1.00;;;7.80;88.20;;;;;;4953355;29;20190;-66
2022/11/24 01:39:15;;;;;;;4.25;1.15;;;7.90;88.10;;;;;;4953787;29;20224;-66
2022/11/24 01:41:42;;;;;;;3.00;1.10;;;7.90;88.20;;;;;;4953330;29;20641;-66
2022/11/24 01:44:24;;;;;;;3.97;1.23;;;8.00;88.10;;;;;;4953610;29;20206;-66
2022/11/24 01:46:56;;;;;;;4.28;1.10;;;8.00;88.30;;;;;;4953249;29;20200;-66
2022/11/24 01:49:28;;;;;;;2.65;1.13;;;8.00;88.10;;;;;;4953870;29;20198;-66
2022/11/24 01:51:59;;;;;;;2.10;0.70;;;8.10;88.00;;;;;;4953465;29;20193;-66
2022/11/24 01:54:30;;;;;;;2.03;0.95;;;8.10;87.90;;;;;;4954018;29;20280;-66
2022/11/24 01:57:02;;;;;;;3.40;1.25;;;8.10;87.70;;;;;;4953175;29;20217;-66
2022/11/24 01:59:29;;;;;;;2.35;0.90;;;8.20;87.90;;;;;;4953689;29;20225;-66
2022/11/24 02:01:57;;;;;;;1.85;0.80;;;8.20;87.70;;;;;;4953256;29;20214;-66
2022/11/24 02:04:30;;;;;;;2.55;0.80;;;8.20;87.60;;;;;;4954007;28;20236;-67
2022/11/24 02:07:01;;;;;;;2.42;0.95;;;8.20;87.80;;;;;;4956766;29;20201;-66
2022/11/24 02:09:32;;;;;;;1.60;0.70;;;8.20;88.50;;;;;;4957311;29;20194;-66
2022/11/24 02:12:01;;;;;;;2.22;1.00;;;8.20;87.70;;;;;;4956756;29;20227;-66
2022/11/24 02:14:28;;;;;;;3.55;0.98;;;8.20;87.50;;;;;;4957175;29;20189;-66
2022/11/24 02:16:55;;;;;;;2.67;1.10;;;8.20;87.40;;;;;;4956756;29;20216;-67
2022/11/24 02:19:34;;;;;;;2.38;1.00;;;8.20;87.60;;;;;;4957075;29;20248;-67
2022/11/24 02:22:03;;;;;;;2.40;1.35;;;8.20;87.80;;;;;;4956738;29;20186;-66
2022/11/24 02:24:38;;;;;;;2.45;0.93;;;8.20;87.10;;;;;;4956423;29;20245;-67
2022/11/24 02:27:07;;;;;;;2.53;0.90;;;8.30;86.90;;;;;;4955257;29;20215;-69
2022/11/24 02:29:34;;;;;;;2.20;1.00;;;8.30;86.90;;;;;;4956141;29;20657;-66
2022/11/24 02:32:06;;;;;;;2.22;1.13;;;8.30;87.00;;;;;;4956459;29;20216;-66
2022/11/24 02:34:33;;;;;;;2.10;1.10;;;8.30;87.10;;;;;;4956374;29;20190;-66
2022/11/24 02:37:01;;;;;;;2.00;1.00;;;8.30;87.20;;;;;;4956944;29;20260;-66
2022/11/24 02:39:29;;;;;;;3.08;0.93;;;8.30;87.30;;;;;;4956136;29;20228;-66
2022/11/24 02:42:01;;;;;;;2.65;0.95;;;8.30;87.40;;;;;;4956303;29;20268;-66
2022/11/24 02:44:35;;;;;;;2.45;1.00;;;8.30;87.60;;;;;;4956435;29;20185;-67
2022/11/24 02:47:04;;;;;;;2.17;1.10;;;8.40;88.20;;;;;;4956523;29;20204;-66
2022/11/24 02:49:31;;;;;;;3.45;1.30;;;8.40;88.90;;;;;;4955941;29;20193;-66
2022/11/24 02:51:59;;;;;;;3.08;0.95;;;8.40;89.60;;;;;;4956067;29;20603;-67
2022/11/24 02:54:26;;;;;;;1.90;0.90;;;8.40;89.60;;;;;;4956152;29;20190;-67
2022/11/24 02:56:54;;;;;;;2.17;1.08;;;8.50;90.00;;;;;;4956504;29;20536;-67
2022/11/24 02:59:21;;;;;;;3.22;1.00;;;8.50;90.00;;;;;;4955903;29;20206;-67
2022/11/24 03:01:49;;;;;;;1.73;0.73;;;8.50;90.10;;;;;;4955935;29;20198;-66
2022/11/24 03:04:19;;;;;;;3.88;1.52;;;8.50;90.00;;;;;;4955698;29;20225;-67
2022/11/24 03:06:47;;;;;;;3.22;1.20;;;8.50;90.00;;;;;;4956382;29;20198;-67
2022/11/24 03:09:15;;;;;;;2.45;0.90;;;8.50;89.80;;;;;;4955709;29;20185;-67
2022/11/24 03:11:42;;;;;;;2.65;0.88;;;8.50;89.90;;;;;;4956121;29;20221;-67
2022/11/24 03:14:09;;;;;;;2.38;0.80;;;8.50;89.90;;;;;;4955915;29;20286;-66
2022/11/24 03:16:36;;;;;;;3.00;1.08;;;8.50;90.00;;;;;;4955276;28;20182;-67
2022/11/24 03:19:06;;;;;;;2.63;0.88;;;8.50;90.00;;;;;;4956037;29;20332;-68
2022/11/24 03:21:34;;;;;;;10.13;2.38;;;8.50;89.90;;;;;;4955498;29;20238;-67
2022/11/24 03:24:01;;;;;;;5.18;2.75;;;8.50;90.10;;;;;;4955957;29;20233;-67
2022/11/24 03:26:29;;;;;;;6.78;1.23;;;8.50;90.10;;;;;;4955427;29;20193;-67
2022/11/24 03:28:56;;;;;;;3.60;1.27;;;8.60;90.20;;;;;;4955748;29;20201;-67
2022/11/24 03:31:24;;;;;;;2.80;1.05;;;8.50;90.30;;;;;;4955470;29;20245;-67
2022/11/24 03:33:51;;;;;;;2.88;1.38;;;8.50;90.30;;;;;;4955950;29;20523;-67
2022/11/24 03:36:20;;;;;;;6.07;1.33;;;8.40;90.30;;;;;;4955512;29;20597;-67
2022/11/24 03:38:47;;;;;;;4.80;1.35;;;8.40;90.30;;;;;;4955739;29;20217;-67
2022/11/24 03:41:14;;;;;;;2.63;0.90;;;8.40;90.20;;;;;;4955214;29;20217;-67
2022/11/24 03:43:42;;;;;;;1.92;0.90;;;8.50;90.30;;;;;;4955348;29;20592;-67
2022/11/24 03:46:10;;;;;;;7.05;1.17;;;8.50;90.10;;;;;;4955254;29;20551;-67
2022/11/24 03:48:37;;;;;;;3.25;1.00;;;8.40;90.00;;;;;;4955594;29;20202;-68
2022/11/24 03:51:04;;;;;;;2.03;1.02;;;8.40;90.00;;;;;;4955182;29;20249;-67
2022/11/24 03:53:33;;;;;;;4.50;1.80;;;8.40;90.00;;;;;;4955152;29;20594;-67
2022/11/24 03:56:01;;;;;;;2.55;0.90;;;8.40;89.80;;;;;;4955448;29;20200;-66
2022/11/24 03:58:29;;;;;;;2.15;1.13;;;8.30;90.10;;;;;;4954773;29;20597;-67
2022/11/24 04:00:57;;;;;;;3.05;1.30;;;8.30;90.30;;;;;;4955020;29;20273;-67
2022/11/24 04:03:25;;;;;;;4.57;1.20;;;8.30;90.40;;;;;;4954747;29;20222;-67
2022/11/24 04:05:52;;;;;;;3.20;1.00;;;8.30;90.30;;;;;;4955674;29;20190;-67
2022/11/24 04:08:19;;;;;;;2.40;0.90;;;8.30;90.10;;;;;;4955198;29;20198;-67
2022/11/24 04:10:52;;;;;;;2.65;1.20;;;8.20;90.00;;;;;;4955273;29;20189;-66
2022/11/24 04:13:20;;;;;;;3.35;1.02;;;8.20;90.10;;;;;;4955151;29;20547;-67
2022/11/24 04:15:47;;;;;;;6.35;1.38;;;8.10;90.10;;;;;;4954882;29;20245;-66
2022/11/24 04:18:15;;;;;;;5.32;1.38;;;8.10;90.20;;;;;;4954872;29;20202;-68
2022/11/24 04:20:42;;;;;;;2.95;1.08;;;8.10;90.20;;;;;;4942254;29;20221;-67
2022/11/24 04:23:10;;;;;;;4.70;1.77;;;8.00;90.10;;;;;;4955053;29;20704;-67
2022/11/24 04:25:38;;;;;;;5.03;1.60;;;8.00;90.40;;;;;;4954761;29;20689;-66
2022/11/24 04:28:06;;;;;;;3.65;1.30;;;8.00;90.40;;;;;;4954335;28;20293;-66
2022/11/24 04:30:35;;;;;;;4.20;2.10;;;8.00;90.30;;;;;;4954171;29;20205;-67
2022/11/24 04:33:05;;;;;;;5.50;2.90;;;8.00;90.10;;;;;;4955061;29;20213;-67
2022/11/24 04:35:32;;;;;;;2.85;1.52;;;8.00;90.10;;;;;;4954675;29;20209;-67
2022/11/24 04:38:02;;;;;;;5.00;2.20;;;8.00;90.20;;;;;;4955030;29;20724;-67
2022/11/24 04:40:30;;;;;;;4.78;1.70;;;8.00;90.30;;;;;;4954061;29;20549;-67
2022/11/24 04:42:57;;;;;;;7.32;2.08;;;8.00;90.50;;;;;;4954748;29;20655;-67
2022/11/24 04:45:27;;;;;;;5.75;1.70;;;7.90;90.50;;;;;;4954749;29;20277;-67
2022/11/24 04:47:54;;;;;;;3.20;1.25;;;8.00;90.50;;;;;;4954786;29;20204;-66
2022/11/24 04:50:22;;;;;;;3.70;1.70;;;8.00;90.40;;;;;;4954459;29;20190;-67
2022/11/24 04:52:49;;;;;;;4.00;1.58;;;8.00;90.50;;;;;;4954732;29;20201;-67
2022/11/24 04:55:16;;;;;;;6.55;2.28;;;8.00;90.50;;;;;;4954386;29;20190;-66
2022/11/24 04:57:44;;;;;;;4.82;1.45;;;7.90;90.50;;;;;;4954494;29;20193;-67
2022/11/24 05:00:12;;;;;;;3.75;1.50;;;7.90;90.50;;;;;;4953616;29;20226;-67
2022/11/24 05:02:41;;;;;;;4.57;1.50;;;7.80;90.50;;;;;;4954627;29;20213;-67
2022/11/24 05:05:09;;;;;;;3.38;1.65;;;7.80;90.50;;;;;;4954190;29;20230;-68
2022/11/24 05:07:37;;;;;;;9.55;2.40;;;7.80;90.60;;;;;;4954491;29;20194;-67
2022/11/24 05:12:55;;;;;;;5.25;1.58;;;7.80;90.60;;;;;;4950966;29;20553;-67
2022/11/24 05:15:22;;;;;;;8.07;2.10;;;7.70;90.50;;;;;;4954273;29;20221;-66
2022/11/24 05:17:52;;;;;;;6.25;2.45;;;7.70;90.60;;;;;;4954470;29;20528;-67
2022/11/24 05:20:20;;;;;;;9.63;1.67;;;7.70;90.70;;;;;;4953910;29;20284;-67
2022/11/24 05:22:47;;;;;;;5.78;1.85;;;7.60;90.80;;;;;;4953963;29;20197;-67
2022/11/24 05:25:14;;;;;;;4.43;2.53;;;7.50;90.80;;;;;;4954027;29;20214;-67
2022/11/24 05:27:41;;;;;;;10.07;3.80;;;7.50;90.90;;;;;;4954207;29;20565;-67
2022/11/24 05:30:10;;;;;;;8.20;2.50;;;7.50;90.80;;;;;;4954145;29;20193;-66
2022/11/24 05:32:37;;;;;;;6.38;1.55;;;7.60;90.70;;;;;;4953886;29;20687;-66
2022/11/24 05:35:08;;;;;;;4.63;1.65;;;7.60;90.60;;;;;;4954193;29;20664;-65
2022/11/24 05:37:36;;;;;;;3.55;1.65;;;7.60;90.50;;;;;;4953814;29;20201;-66
2022/11/24 05:40:04;;;;;;;3.58;1.88;;;7.70;90.50;;;;;;4956518;28;20221;-65
2022/11/24 05:42:40;;;;;;;8.00;5.38;;;7.80;90.40;;;;;;4957701;29;20645;-66
2022/11/24 05:45:10;;;;;;;4.85;3.33;;;7.80;90.10;;;;;;4958023;29;20632;-66
2022/11/24 05:47:38;;;;;;;10.40;3.63;;;7.80;90.10;;;;;;4957734;29;20197;-66
2022/11/24 05:50:08;;;;;;;8.77;2.25;;;7.80;90.10;;;;;;4957841;29;20197;-65
2022/11/24 05:52:36;;;;;;;9.88;3.00;;;7.80;90.10;;;;;;4957917;29;20205;-66
2022/11/24 05:55:03;;;;;;;7.50;3.47;;;7.80;90.00;;;;;;4958098;29;20236;-66
2022/11/24 05:57:31;;;;;;;12.45;3.72;;;7.90;90.00;;;;;;4957054;29;20197;-66
2022/11/24 05:59:58;;;;;;;6.45;3.13;;;7.90;89.40;;;;;;4957632;29;20217;-65
2022/11/24 06:02:25;;;;;;;5.55;3.40;;;8.00;89.40;;;;;;4957437;29;20581;-66
2022/11/24 06:04:53;;;;;;;10.73;2.47;;;8.00;89.00;;;;;;4957613;29;20265;-66
2022/11/24 06:07:22;;;;;;;7.90;2.63;;;8.00;88.80;;;;;;4957447;29;20540;-66
2022/11/24 06:09:49;;;;;;;9.15;2.70;;;8.00;88.30;;;;;;4957482;29;20197;-66
2022/11/24 06:12:19;;;;;;;8.82;2.50;;;7.90;87.50;;;;;;4956537;29;20280;-66
2022/11/24 06:14:46;;;;;;;7.97;3.58;;;7.90;87.50;;;;;;4957258;29;20197;-66
2022/11/24 06:17:13;;;;;;;9.45;2.80;;;7.80;87.60;;;;;;4956666;29;20197;-65
2022/11/24 06:19:45;;;;;;;10.43;3.22;;;7.70;87.80;;;;;;4957009;29;20228;-67
2022/11/24 06:22:13;;;;;;;7.13;2.58;;;7.70;87.90;;;;;;4957565;29;20208;-66
2022/11/24 06:24:43;;;;;;;5.50;1.90;;;7.70;88.20;;;;;;4956961;29;20200;-67
2022/11/24 06:27:10;;;;;;;7.57;2.15;;;7.70;88.00;;;;;;4957168;29;20257;-67
2022/11/24 06:29:37;;;;;;;6.07;3.20;;;7.60;87.80;;;;;;4938018;29;20205;-67
2022/11/24 06:32:06;;;;;;;5.57;2.90;;;7.60;87.50;;;;;;4949061;29;20201;-67
2022/11/24 06:34:33;;;;;;;4.80;1.95;;;7.50;87.70;;;;;;4956777;29;20193;-67
2022/11/24 06:37:00;;;;;;;5.60;2.05;;;7.50;87.60;;;;;;4956680;29;20196;-67
2022/11/24 06:39:28;;;;;;;8.32;2.90;;;7.50;87.30;;;;;;4956524;29;20185;-67
2022/11/24 06:41:56;;;;;;;4.07;1.90;;;7.40;87.30;;;;;;4956647;29;20193;-67
2022/11/24 06:44:24;;;;;;;6.25;2.47;;;7.30;88.00;;;;;;4956720;29;20265;-66
2022/11/24 06:46:51;;;;;;;7.85;2.65;;;7.30;88.10;;;;;;4956920;29;20276;-67
2022/11/24 06:49:18;;;;;;;5.10;2.63;;;7.20;88.10;;;;;;4957019;29;20194;-67
2022/11/24 06:51:45;;;;;;;7.18;2.90;;;7.20;88.20;;;;;;4955623;28;20198;-66
2022/11/24 06:54:15;;;;;;;11.10;3.03;;;7.10;88.40;;;;;;4956140;29;20221;-67
2022/11/24 06:56:43;;;;;;;12.32;3.00;;;7.00;88.40;;;;;;4956491;29;20237;-67
2022/11/24 06:59:17;;;;;;;8.45;3.05;;;6.90;88.40;;;;;;4956225;29;20198;-67
2022/11/24 07:01:45;;;;;;;5.93;3.50;;;7.00;88.10;;;;;;4937742;29;20699;-67
2022/11/24 07:04:13;;;;;;;6.80;3.20;;;6.90;87.50;;;;;;4956498;29;20253;-67
2022/11/24 07:06:41;;;;;;;5.75;2.90;;;6.90;87.60;;;;;;4956715;29;20679;-67
2022/11/24 07:09:08;;;;;;;7.75;3.10;;;6.80;87.30;;;;;;4955080;29;20309;-66
2022/11/24 07:11:36;;;;;;;6.35;3.45;;;6.90;87.50;;;;;;4956676;29;20233;-67
2022/11/24 07:14:03;;;;;;;7.82;3.00;;;6.90;87.20;;;;;;4956266;29;20186;-66
2022/11/24 07:16:32;;;;;;;9.02;3.13;;;7.00;87.00;;;;;;4956701;29;20548;-67
2022/11/24 07:19:03;;;;;;;7.90;3.40;;;6.90;86.90;;;;;;4955917;29;20717;-67
2022/11/24 07:21:30;;;;;;;10.25;3.45;;;7.00;86.60;;;;;;4956508;29;20222;-66
2022/11/24 07:23:58;;;;;;;6.40;3.33;;;7.00;86.20;;;;;;4955877;29;20225;-66
2022/11/24 07:26:26;;;;;;;7.43;2.63;;;7.10;86.90;;;;;;4955688;29;20288;-67
2022/11/24 07:28:53;;;;;;;6.60;3.38;;;7.40;87.60;;;;;;4956495;29;20645;-66
2022/11/24 07:31:23;;;;;;;14.05;3.22;;;7.70;87.50;;;;;;4956557;29;20217;-67
2022/11/24 07:33:53;;;;;;;9.60;2.42;;;8.10;87.30;;;;;;4955759;29;20204;-67
2022/11/24 07:36:20;;;;;;;6.40;2.88;;;8.30;83.00;;;;;;4956784;29;20202;-67
2022/11/24 07:38:48;;;;;;;3.40;1.88;;;8.40;83.30;;;;;;4953136;28;20220;-67
2022/11/24 07:41:18;;;;;;;6.20;2.60;;;8.60;81.40;;;;;;4954668;29;20257;-67
2022/11/24 07:43:45;;;;;;;7.22;2.72;;;9.00;80.00;;;;;;4954853;29;20271;-67
2022/11/24 07:46:14;;;;;;;9.05;2.70;;;9.30;79.70;;;;;;4954979;29;20222;-67
2022/11/24 07:48:41;;;;;;;6.95;2.30;;;9.70;77.70;;;;;;4942077;29;20182;-67
2022/11/24 07:51:10;;;;;;;6.30;2.25;;;10.00;75.30;;;;;;4955442;29;20201;-67
2022/11/24 07:53:38;;;;;;;11.43;2.90;;;10.30;72.70;;;;;;4955190;29;20222;-67
2022/11/24 07:56:06;;;;;;;7.20;2.75;;;10.60;72.40;;;;;;4956342;29;20198;-67
2022/11/24 07:58:34;;;;;;;5.18;2.10;;;10.90;69.50;;;;;;4956088;29;20281;-66
2022/11/24 08:01:10;;;;;;;6.18;2.00;;;11.20;69.50;;;;;;4956018;29;20222;-67
2022/11/24 08:03:37;;;;;;;6.70;2.80;;;11.40;67.90;;;;;;4955985;28;20231;-67
2022/11/24 08:06:04;;;;;;;11.52;3.13;;;11.50;65.70;;;;;;4956065;29;20242;-67
2022/11/24 08:08:33;;;;;;;4.18;2.22;;;11.60;65.40;;;;;;4955777;29;20271;-67
2022/11/24 08:11:05;;;;;;;7.43;2.10;;;11.80;63.00;;;;;;4956011;29;20237;-67
2022/11/24 08:13:33;;;;;;;8.77;2.20;;;12.00;62.70;;;;;;4955740;29;20291;-67
2022/11/24 08:16:03;;;;;;;7.80;2.17;;;12.40;60.30;;;;;;4955917;29;20589;-67
2022/11/24 08:18:30;;;;;;;4.50;1.77;;;12.70;60.00;;;;;;4955921;29;20502;-67
2022/11/24 08:20:58;;;;;;;9.43;3.30;;;13.30;60.60;;;;;;4955592;29;20539;-67
2022/11/24 08:23:25;;;;;;;5.27;2.70;;;13.80;57.50;;;;;;4955471;29;20903;-67
2022/11/24 08:25:55;;;;;;;5.10;2.67;;;14.10;56.40;;;;;;4955859;29;20492;-67
2022/11/24 08:28:22;;;;;;;6.90;2.60;;;14.20;56.10;;;;;;4955402;29;20449;-68
2022/11/24 08:30:49;;;;;;;9.67;2.70;;;14.30;55.60;;;;;;4955572;29;20481;-67
2022/11/24 08:33:17;;;;;;;6.13;1.93;;;14.10;53.80;;;;;;4955830;29;20448;-67
2022/11/24 08:35:44;;;;;;;11.23;2.33;;;13.60;52.50;;;;;;4955499;29;20473;-67
2022/11/24 08:38:10;;;;;;;5.27;1.77;;;13.40;53.70;;;;;;4955414;29;20433;-67
2022/11/24 08:40:37;;;;;;;10.40;1.63;;;13.10;54.60;;;;;;4955379;29;20489;-67
2022/11/24 08:43:06;;;;;;;11.10;2.50;;;13.10;54.90;;;;;;4955530;29;20441;-67
2022/11/24 08:45:33;;;;;;;7.70;2.53;;;12.90;54.30;;;;;;4954945;29;20477;-67
2022/11/24 08:48:00;;;;;;;8.17;1.90;;;12.50;53.50;;;;;;4955437;29;20441;-67
2022/11/24 08:50:27;;;;;;;5.10;2.17;;;12.30;55.00;;;;;;4955437;29;20442;-67
2022/11/24 08:52:54;;;;;;;6.17;1.63;;;12.20;55.90;;;;;;4955127;29;20440;-67
2022/11/24 08:55:21;;;;;;;6.00;2.70;;;12.10;55.70;;;;;;4955086;29;20441;-67
2022/11/24 08:57:48;;;;;;;7.13;2.80;;;12.00;56.80;;;;;;4955229;29;20939;-67
2022/11/24 09:00:22;;;;;;;5.40;1.80;;;11.90;55.50;;;;;;4955438;29;20466;-67
2022/11/24 09:02:56;;;;;;;10.37;1.70;;;11.80;55.70;;;;;;4955216;29;20722;-67
2022/11/24 09:05:23;;;;;;;5.97;1.70;;;11.70;56.50;;;;;;4955090;29;20566;-68
2022/11/24 09:07:51;;;;;;;10.67;2.07;;;11.70;56.70;;;;;;4954904;29;20871;-67
2022/11/24 09:10:18;;;;;;;5.80;1.80;;;11.70;55.90;;;;;;4954824;29;20444;-67
2022/11/24 09:12:46;;;;;;;4.30;1.98;;;11.90;57.40;;;;;;4955060;29;20445;-68
2022/11/24 09:15:15;;;;;;;9.40;2.13;;;12.20;58.10;;;;;;4954738;28;20596;-67
2022/11/24 09:17:43;;;;;;;4.90;1.90;;;12.50;58.00;;;;;;4954951;29;20441;-67
2022/11/24 09:20:10;;;;;;;7.50;3.53;;;12.70;57.50;;;;;;4954989;29;20449;-67
2022/11/24 09:22:40;;;;;;;5.40;1.80;;;12.90;57.40;;;;;;4954529;29;20487;-67
2022/11/24 09:25:07;;;;;;;4.00;1.43;;;12.90;55.40;;;;;;4954529;29;20452;-67
2022/11/24 09:27:35;;;;;;;7.37;1.67;;;12.70;54.90;;;;;;4954950;29;20445;-67
2022/11/24 09:30:02;;;;;;;4.80;1.40;;;12.60;55.30;;;;;;4954841;29;20437;-67
2022/11/24 09:32:30;;;;;;;4.43;1.27;;;12.50;55.30;;;;;;4954639;29;20983;-68
2022/11/24 09:34:58;;;;;;;4.13;1.90;;;12.40;55.50;;;;;;4954647;29;20865;-67
2022/11/24 09:37:25;;;;;;;5.70;2.33;;;12.20;55.80;;;;;;4955063;29;20845;-67
2022/11/24 09:39:52;;;;;;;4.33;1.90;;;12.20;56.40;;;;;;4954914;29;20457;-68
2022/11/24 09:42:31;;;;;;;5.23;1.50;;;12.10;56.30;;;;;;4954577;29;21081;-67
2022/11/24 09:45:18;;;;;;;7.13;2.00;;;12.00;55.90;;;;;;4954982;29;20456;-66
2022/11/24 09:47:54;;;;;;;4.73;1.60;;;11.90;56.80;;;;;;4954501;29;20457;-66
2022/11/24 09:50:24;;;;;;;5.10;1.70;;;11.70;57.20;;;;;;4954715;29;20444;-67
2022/11/24 09:53:00;;;;;;;5.57;1.80;;;11.60;57.60;;;;;;4954586;29;20496;-67
2022/11/24 09:55:39;;;;;;;10.60;2.10;;;11.40;58.10;;;;;;4954333;29;20454;-67
2022/11/24 09:58:14;;;;;;;4.93;1.42;;;11.20;58.10;;;;;;4954213;29;20451;-67
2022/11/24 10:00:42;;;;;;;5.22;1.73;;;11.00;59.00;;;;;;4954326;29;20671;-67
2022/11/24 10:03:16;;;;;;;8.02;2.50;;;10.90;59.70;;;;;;4954032;29;20232;-67
2022/11/24 10:05:48;;;;;;;3.28;1.27;;;10.80;62.00;;;;;;4954469;29;20592;-66
2022/11/24 10:08:27;;;;;;;6.15;1.55;;;10.70;62.30;;;;;;4954637;29;21025;-67
2022/11/24 10:10:58;;;;;;;8.32;2.20;;;10.60;63.80;;;;;;4954491;29;20597;-67
2022/11/24 10:13:48;;;;;;;6.10;1.50;;;10.50;66.40;;;;;;4953827;29;20291;-67
2022/11/24 10:16:28;;;;;;;6.05;1.35;;;10.30;67.20;;;;;;4954401;29;20648;-67
2022/11/24 10:19:03;;;;;;;5.47;1.67;;;10.20;67.50;;;;;;4954156;29;20209;-67
2022/11/24 10:21:58;;;;;;;4.32;1.27;;;10.10;67.90;;;;;;4954227;29;20277;-67
2022/11/24 10:24:58;;;;;;;7.20;1.70;;;10.10;68.60;;;;;;4954140;29;20703;-66
2022/11/24 10:27:30;;;;;;;6.38;1.70;;;10.00;69.00;;;;;;4956946;29;20224;-67
2022/11/24 10:29:59;;;;;;;3.67;1.35;;;10.00;69.30;;;;;;4957732;29;20297;-67
2022/11/24 10:32:32;;;;;;;5.25;1.90;;;10.10;71.00;;;;;;4957513;29;20650;-67
2022/11/24 10:35:02;;;;;;;5.63;2.05;;;10.20;72.00;;;;;;4957729;29;20259;-67
2022/11/24 10:37:37;;;;;;;5.25;1.42;;;10.20;72.80;;;;;;4957532;29;20261;-67
2022/11/24 10:40:12;;;;;;;4.28;2.70;;;10.30;73.50;;;;;;4957378;29;20645;-66
2022/11/24 10:42:39;;;;;;;6.40;2.03;;;10.50;73.60;;;;;;4957216;29;20225;-67
2022/11/24 10:45:11;;;;;;;5.18;1.63;;;10.50;74.10;;;;;;4957479;28;20293;-67
2022/11/24 10:47:40;;;;;;;4.03;1.92;;;10.50;73.50;;;;;;4957375;29;20273;-67
2022/11/24 10:50:19;;;;;;;7.30;2.15;;;10.60;73.60;;;;;;4957187;29;20222;-67
2022/11/24 10:52:55;;;;;;;5.80;2.20;;;10.60;73.20;;;;;;4956788;29;20259;-66
2022/11/24 10:55:22;;;;;;;8.95;2.55;;;10.60;73.10;;;;;;4957189;29;20191;-67
2022/11/24 10:57:49;;;;;;;6.60;2.15;;;10.60;72.10;;;;;;4957084;29;20249;-67
2022/11/24 11:00:33;;;;;;;9.00;2.80;;;10.50;71.60;;;;;;4956874;29;20199;-66
2022/11/24 11:03:18;;;;;;;4.80;2.30;;;10.50;72.40;;;;;;4956798;29;20695;-67
2022/11/24 11:05:50;;;;;;;9.13;3.10;;;10.50;73.70;;;;;;4956447;29;20285;-66
2022/11/24 11:08:25;;;;;;;8.45;3.88;;;10.50;72.80;;;;;;4957049;29;20199;-67
2022/11/24 11:11:13;;;;;;;7.30;2.30;;;10.50;72.70;;;;;;4956670;29;20198;-67
2022/11/24 11:13:50;;;;;;;7.25;3.30;;;10.50;72.30;;;;;;4956674;29;20243;-67
2022/11/24 11:16:26;;;;;;;6.35;2.50;;;10.50;72.90;;;;;;4956816;29;20280;-68
2022/11/24 11:18:53;;;;;;;4.65;1.63;;;10.60;74.00;;;;;;4955148;29;20195;-67
2022/11/24 11:21:31;;;;;;;4.22;1.50;;;10.60;73.80;;;;;;4956863;29;20576;-67
2022/11/24 11:24:01;;;;;;;3.33;1.27;;;10.60;73.80;;;;;;4956874;29;20602;-67
2022/11/24 11:26:33;;;;;;;3.75;1.30;;;10.60;74.10;;;;;;4956413;29;20231;-67
2022/11/24 11:29:04;;;;;;;3.20;1.00;;;10.50;72.90;;;;;;4955310;29;20273;-69
2022/11/24 11:31:31;;;;;;;3.30;1.25;;;10.60;73.10;;;;;;4956187;29;20198;-67
2022/11/24 11:34:01;;;;;;;4.55;1.02;;;10.70;73.80;;;;;;4956011;29;20529;-67
2022/11/24 11:36:31;;;;;;;4.20;1.20;;;10.70;73.40;;;;;;4955727;28;20194;-67
2022/11/24 11:39:00;;;;;;;2.40;1.10;;;10.70;72.00;;;;;;4952870;29;20257;-67
2022/11/24 11:41:32;;;;;;;2.60;1.23;;;10.70;71.90;;;;;;4956336;29;20278;-67
2022/11/24 11:44:21;;;;;;;2.28;1.10;;;10.70;72.10;;;;;;4955252;29;20234;-67
2022/11/24 11:46:48;;;;;;;2.50;0.80;;;10.70;71.10;;;;;;4956112;29;20260;-67
2022/11/24 11:49:15;;;;;;;2.85;1.08;;;10.60;71.50;;;;;;4955282;29;20200;-67
2022/11/24 11:51:53;;;;;;;3.17;0.98;;;10.60;71.10;;;;;;4955496;29;20223;-67
2022/11/24 11:54:34;;;;;;;2.03;0.90;;;10.60;70.40;;;;;;4954782;29;20191;-67
2022/11/24 11:57:10;;;;;;;2.25;0.98;;;10.60;70.10;;;;;;4955859;29;20205;-67
2022/11/24 11:59:59;;;;;;;2.13;0.80;;;10.70;70.00;;;;;;4936719;29;20199;-67
2022/11/24 12:02:51;;;;;;;2.40;1.13;;;10.60;70.20;;;;;;4937853;29;20261;-67
2022/11/24 12:05:27;;;;;;;2.10;0.80;;;10.60;70.20;;;;;;4955323;29;20273;-67
2022/11/24 12:08:10;;;;;;;3.97;0.82;;;10.50;71.60;;;;;;4955057;29;20197;-67
2022/11/24 12:10:42;;;;;;;4.43;0.90;;;10.50;71.60;;;;;;4953803;29;20208;-67
2022/11/24 12:13:34;;;;;;;3.78;0.95;;;10.40;71.90;;;;;;4955409;29;20194;-67
2022/11/24 12:16:15;;;;;;;2.50;0.82;;;10.50;71.90;;;;;;4955309;29;20200;-68
2022/11/24 12:18:49;;;;;;;3.15;2.28;;;10.90;72.80;;;;;;4955378;29;20196;-67
2022/11/24 12:21:18;;;;;;;2.40;1.00;;;11.40;72.40;;;;;;4955529;29;20276;-67
2022/11/24 12:23:56;;;;;;;4.25;0.90;;;11.80;70.70;;;;;;4955564;29;20459;-66
2022/11/24 12:26:34;;;;;;;2.17;1.10;;;12.60;70.20;;;;;;4955416;29;20198;-67
2022/11/24 12:29:25;;;;;;;2.70;1.03;;;12.90;65.20;;;;;;4955116;29;20445;-67
2022/11/24 12:31:59;;;;;;;2.87;1.00;;;13.00;62.80;;;;;;4955566;29;20452;-67
2022/11/24 12:34:42;;;;;;;4.93;1.00;;;13.30;62.60;;;;;;4955474;29;20464;-67
2022/11/24 12:37:49;;;;;;;5.40;1.50;;;13.80;63.90;;;;;;4955271;29;20979;-67
2022/11/24 12:40:26;;;;;;;3.23;1.20;;;14.90;61.30;;;;;;4877388;29;20481;-67
2022/11/24 12:43:02;;;;;;;4.27;0.90;;;15.70;57.70;;;;;;4947836;29;20575;-67
2022/11/24 12:45:40;;;;;;;5.73;1.40;;;15.70;55.00;;;;;;4955194;29;20485;-67
2022/11/24 12:48:30;;;;;;;3.83;1.20;;;16.10;55.30;;;;;;4955047;28;20502;-65
2022/11/24 12:50:58;;;;;;;3.47;1.30;;;16.70;54.10;;;;;;4955239;29;20449;-66
2022/11/24 12:53:29;;;;;;;7.53;1.37;;;17.10;52.50;;;;;;4955233;29;20442;-65
2022/11/24 12:55:59;;;;;;;3.20;1.10;;;17.50;52.50;;;;;;4954994;29;20473;-66
2022/11/24 12:58:44;;;;;;;4.10;1.00;;;17.80;50.50;;;;;;4955165;29;20920;-67
2022/11/24 13:01:18;;;;;;;3.97;1.10;;;17.90;48.40;;;;;;4954845;29;20847;-66
2022/11/24 13:03:57;;;;;;;4.23;1.57;;;18.00;48.30;;;;;;4954583;28;21026;-66
2022/11/24 13:06:30;;;;;;;2.13;0.90;;;17.70;47.10;;;;;;4954945;29;20445;-66
2022/11/24 13:08:58;;;;;;;5.10;0.90;;;17.20;46.70;;;;;;4954719;29;20546;-66
2022/11/24 13:11:41;;;;;;;3.77;1.30;;;16.70;47.60;;;;;;4954918;29;20508;-65